Time;durP1;ratioP1;P1;durP2;ratioP2;P2;SDS_P1;SDS_P2;PMS_P1;PMS_P2;Temp;Humidity;BMP_temperature;BMP_pressure;BME280_temperature;BME280_humidity;BME280_pressure;Samples;Min_cycle;Max_cycle;Signal;HPM_P1;HPM_P2
2021/12/28 00:00:15;;;;;;;37.88;27.20;;;5.20;99.90;;;;;;5090779;28;20043;-78
2021/12/28 00:02:45;;;;;;;43.78;26.15;;;5.10;99.90;;;;;;5120431;28;20043;-84
2021/12/28 00:05:11;;;;;;;36.50;25.20;;;5.20;99.90;;;;;;5113006;28;20035;-85
2021/12/28 00:07:37;;;;;;;36.28;25.00;;;5.20;99.90;;;;;;5092630;28;20066;-84
2021/12/28 00:10:06;;;;;;;42.53;27.48;;;5.20;99.90;;;;;;5113949;27;20043;-84
2021/12/28 00:12:34;;;;;;;36.53;26.65;;;5.20;99.90;;;;;;5102569;28;20042;-84
2021/12/28 00:15:07;;;;;;;39.67;26.35;;;5.30;99.90;;;;;;5112101;27;20058;-84
2021/12/28 00:20:18;;;;;;;41.70;28.98;;;5.20;99.90;;;;;;5113788;28;20048;-83
2021/12/28 00:22:44;;;;;;;37.83;26.15;;;5.20;99.90;;;;;;5114245;27;20454;-86
2021/12/28 00:25:11;;;;;;;41.85;27.38;;;5.30;99.90;;;;;;5114061;27;20126;-81
2021/12/28 00:27:38;;;;;;;39.60;27.10;;;5.20;99.90;;;;;;5114360;28;20089;-83
2021/12/28 00:30:05;;;;;;;43.33;28.65;;;5.30;99.90;;;;;;5095911;27;20545;-85
2021/12/28 00:32:30;;;;;;;43.72;27.73;;;5.20;99.90;;;;;;5104211;27;20058;-82
2021/12/28 00:34:56;;;;;;;45.88;29.58;;;5.30;99.90;;;;;;5132396;27;20028;-83
2021/12/28 00:37:22;;;;;;;45.58;29.00;;;5.20;99.90;;;;;;5122139;28;20501;-81
2021/12/28 00:39:47;;;;;;;41.95;26.88;;;5.40;99.90;;;;;;5118958;27;20401;-82
2021/12/28 00:42:14;;;;;;;53.00;31.05;;;5.20;99.90;;;;;;5113913;27;20047;-83
2021/12/28 00:44:40;;;;;;;52.20;30.83;;;5.30;99.90;;;;;;5113232;27;20335;-84
2021/12/28 00:47:06;;;;;;;58.83;33.65;;;5.40;99.90;;;;;;5112125;27;20485;-84
2021/12/28 00:49:31;;;;;;;58.92;33.03;;;5.40;99.90;;;;;;5130041;27;20051;-84
2021/12/28 00:51:57;;;;;;;50.70;32.22;;;5.30;99.90;;;;;;5094255;28;20564;-85
2021/12/28 00:54:22;;;;;;;66.63;35.67;;;5.30;99.90;;;;;;5128154;27;20045;-85
2021/12/28 00:56:48;;;;;;;60.53;34.88;;;5.50;99.90;;;;;;5099189;28;20489;-85
2021/12/28 00:59:14;;;;;;;64.65;34.33;;;5.40;99.90;;;;;;5113980;27;20122;-77
2021/12/28 01:01:39;;;;;;;66.70;34.28;;;5.50;99.90;;;;;;5128661;27;20086;-84
2021/12/28 01:04:05;;;;;;;66.80;37.75;;;5.50;99.90;;;;;;5116112;27;20051;-85
2021/12/28 01:06:31;;;;;;;54.13;33.58;;;5.50;99.90;;;;;;5094301;27;20048;-86
2021/12/28 01:08:56;;;;;;;63.35;34.75;;;5.50;99.90;;;;;;5113025;28;20417;-85
2021/12/28 01:11:22;;;;;;;67.18;37.42;;;5.50;99.90;;;;;;5119170;27;20046;-85
2021/12/28 01:13:48;;;;;;;73.90;37.67;;;5.50;99.90;;;;;;5113162;28;20383;-84
2021/12/28 01:16:14;;;;;;;59.72;37.60;;;5.50;99.90;;;;;;5121520;27;20043;-76
2021/12/28 01:18:41;;;;;;;67.57;38.83;;;5.60;99.90;;;;;;5121439;27;20513;-85
2021/12/28 01:21:07;;;;;;;78.47;39.95;;;5.50;99.90;;;;;;5115599;27;20039;-85
2021/12/28 01:23:33;;;;;;;81.85;38.90;;;5.60;99.90;;;;;;5112824;27;20058;-85
2021/12/28 01:25:59;;;;;;;123.65;45.55;;;5.70;99.90;;;;;;5094123;28;20040;-84
2021/12/28 01:28:25;;;;;;;91.55;44.17;;;5.80;99.90;;;;;;5115875;27;20122;-84
2021/12/28 01:30:50;;;;;;;95.25;45.42;;;5.70;99.90;;;;;;5124151;27;20504;-84
2021/12/28 01:33:16;;;;;;;92.57;44.15;;;5.70;99.90;;;;;;5093534;28;20046;-86
2021/12/28 01:35:42;;;;;;;93.05;44.30;;;5.60;99.90;;;;;;5112150;28;20046;-84
2021/12/28 01:38:08;;;;;;;98.80;47.83;;;5.80;99.90;;;;;;5093374;27;20482;-85
2021/12/28 01:40:37;;;;;;;106.88;44.92;;;5.90;99.90;;;;;;5093743;28;20507;-86
2021/12/28 01:43:17;;;;;;;130.50;50.35;;;5.80;99.90;;;;;;5112483;28;20689;-84
2021/12/28 01:45:46;;;;;;;107.90;47.22;;;5.90;99.90;;;;;;5111546;27;20512;-77
2021/12/28 01:48:41;;;;;;;154.90;50.45;;;5.90;99.90;;;;;;5093887;28;20048;-84
2021/12/28 01:51:20;;;;;;;122.93;47.28;;;6.00;99.90;;;;;;5108927;27;20117;-85
2021/12/28 01:53:48;;;;;;;132.52;51.80;;;6.00;99.90;;;;;;5114215;27;20039;-84
2021/12/28 01:56:18;;;;;;;159.45;53.30;;;6.00;99.90;;;;;;5108393;27;20053;-79
2021/12/28 01:58:44;;;;;;;192.00;58.55;;;6.00;99.90;;;;;;5094894;28;20036;-84
2021/12/28 02:01:10;;;;;;;141.48;51.75;;;6.10;99.90;;;;;;5112451;27;20046;-83
2021/12/28 02:03:40;;;;;;;170.48;52.75;;;6.10;99.90;;;;;;5127475;27;20034;-84
2021/12/28 02:06:06;;;;;;;141.50;52.55;;;6.10;99.90;;;;;;5118071;27;20043;-83
2021/12/28 02:08:32;;;;;;;167.93;56.25;;;6.10;99.90;;;;;;5099422;28;20047;-85
2021/12/28 02:10:58;;;;;;;133.27;50.95;;;6.20;99.90;;;;;;5110827;28;20038;-84
2021/12/28 02:13:25;;;;;;;157.38;57.03;;;6.20;99.90;;;;;;5110783;27;20420;-84
2021/12/28 02:15:51;;;;;;;170.73;56.33;;;6.20;99.90;;;;;;5098010;27;20046;-83
2021/12/28 02:18:19;;;;;;;161.75;54.10;;;6.20;99.90;;;;;;5112311;27;20051;-84
2021/12/28 02:20:45;;;;;;;151.50;52.72;;;6.20;99.90;;;;;;5092531;28;20043;-84
2021/12/28 02:23:11;;;;;;;139.32;51.83;;;6.20;99.90;;;;;;5111141;27;20457;-83
2021/12/28 02:25:37;;;;;;;212.30;59.08;;;6.30;99.90;;;;;;5110490;27;20103;-84
2021/12/28 02:28:06;;;;;;;202.63;55.55;;;6.30;99.90;;;;;;5095821;27;20043;-84
2021/12/28 02:30:31;;;;;;;199.75;56.05;;;6.30;99.90;;;;;;5126292;27;20036;-82
2021/12/28 02:32:57;;;;;;;206.63;57.65;;;6.30;99.90;;;;;;5092232;28;20370;-84
2021/12/28 02:35:25;;;;;;;147.95;51.72;;;6.30;99.90;;;;;;5075724;28;20517;-84
2021/12/28 02:37:52;;;;;;;196.60;54.47;;;6.40;99.90;;;;;;5110902;27;20032;-84
2021/12/28 02:40:21;;;;;;;162.23;53.40;;;6.50;99.90;;;;;;5110035;28;20027;-85
2021/12/28 02:42:47;;;;;;;193.80;53.80;;;6.50;99.90;;;;;;5110216;27;20047;-84
2021/12/28 02:45:28;;;;;;;202.20;59.05;;;6.50;99.90;;;;;;5110237;28;20023;-74
2021/12/28 02:47:53;;;;;;;249.57;58.72;;;6.50;99.90;;;;;;5113408;27;20044;-78
2021/12/28 02:50:27;;;;;;;185.05;53.30;;;6.40;99.90;;;;;;5112002;27;20054;-85
2021/12/28 02:52:54;;;;;;;207.82;57.22;;;6.50;99.90;;;;;;5111410;27;20036;-84
2021/12/28 02:55:22;;;;;;;172.75;53.42;;;6.50;99.90;;;;;;5110697;27;20122;-84
2021/12/28 02:57:54;;;;;;;147.40;53.03;;;6.50;99.90;;;;;;5076079;27;20146;-81
2021/12/28 03:00:45;;;;;;;178.77;54.17;;;6.50;99.90;;;;;;5109732;27;20060;-83
2021/12/28 03:03:20;;;;;;;203.55;57.85;;;6.60;99.90;;;;;;5111411;27;20051;-84
2021/12/28 03:05:50;;;;;;;201.90;56.83;;;6.50;99.90;;;;;;5110042;27;20039;-84
2021/12/28 03:08:17;;;;;;;161.02;53.22;;;6.70;99.90;;;;;;5119148;27;20051;-83
2021/12/28 03:10:45;;;;;;;165.40;50.47;;;6.60;99.90;;;;;;5117166;27;20046;-82
2021/12/28 03:13:20;;;;;;;202.85;56.22;;;6.70;99.90;;;;;;5099232;28;20050;-84
2021/12/28 03:15:46;;;;;;;201.68;54.33;;;6.70;99.90;;;;;;5108312;28;20406;-83
2021/12/28 03:18:12;;;;;;;161.27;51.97;;;6.70;99.90;;;;;;5114286;27;20039;-84
2021/12/28 03:20:38;;;;;;;133.82;47.35;;;6.70;99.90;;;;;;5130309;27;20434;-84
2021/12/28 03:23:04;;;;;;;168.20;53.63;;;6.70;99.90;;;;;;5105781;28;20498;-84
2021/12/28 03:25:31;;;;;;;170.82;52.33;;;6.60;99.90;;;;;;5092172;28;20059;-85
2021/12/28 03:27:57;;;;;;;158.73;53.15;;;6.70;99.90;;;;;;5130170;27;20135;-82
2021/12/28 03:30:23;;;;;;;139.32;49.30;;;6.60;99.90;;;;;;5127957;27;20067;-84
2021/12/28 03:32:51;;;;;;;127.22;51.45;;;6.70;99.90;;;;;;5094042;28;20101;-85
2021/12/28 03:35:16;;;;;;;140.50;46.67;;;6.70;99.90;;;;;;5115273;27;20047;-85
2021/12/28 03:37:42;;;;;;;153.40;47.42;;;6.70;99.90;;;;;;5121391;28;20083;-83
2021/12/28 03:40:11;;;;;;;121.03;47.15;;;6.80;99.90;;;;;;5122799;28;20083;-83
2021/12/28 03:42:37;;;;;;;113.57;45.15;;;6.70;99.90;;;;;;5113065;27;20067;-84
2021/12/28 03:45:05;;;;;;;128.30;47.08;;;6.80;99.90;;;;;;5120559;27;20045;-85
2021/12/28 03:47:31;;;;;;;122.50;46.70;;;6.90;99.90;;;;;;5110593;27;20085;-86
2021/12/28 03:49:57;;;;;;;118.82;45.63;;;6.90;99.90;;;;;;5130169;27;20476;-84
2021/12/28 03:52:23;;;;;;;123.53;44.42;;;6.90;99.90;;;;;;5126877;27;20412;-86
2021/12/28 03:54:48;;;;;;;133.35;46.80;;;6.90;99.90;;;;;;5130604;27;20513;-85
2021/12/28 03:57:14;;;;;;;128.82;45.45;;;6.90;99.90;;;;;;5112727;28;20043;-81
2021/12/28 03:59:39;;;;;;;130.27;45.97;;;6.90;99.90;;;;;;5118741;27;20035;-84
2021/12/28 04:02:06;;;;;;;120.30;43.65;;;6.90;99.90;;;;;;5115144;27;20042;-84
2021/12/28 04:04:32;;;;;;;109.78;42.50;;;7.00;99.90;;;;;;5093408;28;20118;-83
2021/12/28 04:06:58;;;;;;;103.75;43.03;;;6.90;99.90;;;;;;5110058;28;20070;-83
2021/12/28 04:09:46;;;;;;;107.05;42.78;;;7.00;99.90;;;;;;5090740;28;20071;-83
2021/12/28 04:12:09;;;;;;;135.18;43.30;;;6.90;99.90;;;;;;5096696;28;20127;-83
2021/12/28 04:14:35;;;;;;;114.50;41.85;;;6.90;99.90;;;;;;5115070;28;20497;-83
2021/12/28 04:17:01;;;;;;;119.88;39.75;;;6.80;99.90;;;;;;5090424;28;20043;-82
2021/12/28 04:19:27;;;;;;;125.18;42.58;;;7.00;99.90;;;;;;5120729;28;20039;-84
2021/12/28 04:21:52;;;;;;;129.45;41.10;;;6.90;99.90;;;;;;5109686;28;20046;-84
2021/12/28 04:24:18;;;;;;;105.78;41.75;;;6.90;99.90;;;;;;5091050;28;20441;-84
2021/12/28 04:26:44;;;;;;;93.68;38.67;;;6.90;99.90;;;;;;5108883;28;20039;-84
2021/12/28 04:29:09;;;;;;;100.13;41.67;;;7.00;99.90;;;;;;5090724;28;20493;-81
2021/12/28 04:31:35;;;;;;;120.25;44.50;;;7.00;99.90;;;;;;5117215;28;20428;-83
2021/12/28 04:34:01;;;;;;;122.00;40.95;;;7.00;99.90;;;;;;5111364;28;20126;-82
2021/12/28 04:36:27;;;;;;;97.43;38.92;;;7.00;99.90;;;;;;5100042;28;20048;-84
2021/12/28 04:38:52;;;;;;;92.68;36.95;;;6.90;99.90;;;;;;5109018;28;20043;-83
2021/12/28 04:41:18;;;;;;;83.80;36.42;;;7.00;99.90;;;;;;5089625;28;20134;-83
2021/12/28 04:43:46;;;;;;;82.50;34.58;;;7.00;99.90;;;;;;5110490;28;20162;-85
2021/12/28 04:46:12;;;;;;;91.63;36.42;;;7.00;99.90;;;;;;5112778;28;20043;-87
2021/12/28 04:48:37;;;;;;;79.13;35.25;;;6.90;99.90;;;;;;5100573;28;20134;-88
2021/12/28 04:51:03;;;;;;;89.85;38.17;;;7.00;99.90;;;;;;5078294;28;20047;-87
2021/12/28 04:53:29;;;;;;;83.65;37.33;;;6.90;99.90;;;;;;5111841;28;20047;-86
2021/12/28 04:55:55;;;;;;;92.28;36.35;;;6.90;99.90;;;;;;5096061;28;20075;-86
2021/12/28 04:58:21;;;;;;;96.38;36.58;;;6.90;99.90;;;;;;5104947;27;20493;-83
2021/12/28 05:00:48;;;;;;;93.07;37.05;;;6.90;99.90;;;;;;5130217;27;20027;-84
2021/12/28 05:03:15;;;;;;;78.85;34.72;;;6.80;99.90;;;;;;5114076;27;20112;-75
2021/12/28 05:05:44;;;;;;;77.30;33.15;;;6.80;99.90;;;;;;5096484;27;20156;-86
2021/12/28 05:08:14;;;;;;;80.72;36.53;;;6.80;99.90;;;;;;5103268;27;20513;-86
2021/12/28 05:10:41;;;;;;;76.70;33.65;;;6.70;99.90;;;;;;5116276;27;20039;-86
2021/12/28 05:13:07;;;;;;;77.07;35.80;;;6.70;99.90;;;;;;5125315;27;20043;-87
2021/12/28 05:15:33;;;;;;;82.78;35.75;;;6.70;99.90;;;;;;5097477;27;20040;-88
2021/12/28 05:17:59;;;;;;;112.00;38.88;;;6.70;99.90;;;;;;5098016;27;20054;-85
2021/12/28 05:20:24;;;;;;;91.97;37.00;;;6.80;99.90;;;;;;5099760;28;20393;-86
2021/12/28 05:22:50;;;;;;;74.82;34.45;;;6.70;99.90;;;;;;5115529;27;20123;-85
2021/12/28 05:25:16;;;;;;;73.97;33.30;;;6.70;99.90;;;;;;5091939;28;20044;-85
2021/12/28 05:27:41;;;;;;;73.88;34.20;;;6.70;99.90;;;;;;5102741;28;20286;-86
2021/12/28 05:30:09;;;;;;;69.85;33.25;;;6.70;99.90;;;;;;5111155;28;20040;-86
2021/12/28 05:32:35;;;;;;;81.25;37.88;;;6.70;99.90;;;;;;5093368;28;20055;-86
2021/12/28 05:35:03;;;;;;;80.10;35.58;;;6.70;99.90;;;;;;5092800;28;20108;-86
2021/12/28 05:37:29;;;;;;;79.18;38.03;;;6.70;99.90;;;;;;5102152;28;20036;-88
2021/12/28 05:39:55;;;;;;;82.25;35.95;;;6.60;99.90;;;;;;5093273;28;20048;-85
2021/12/28 05:42:21;;;;;;;66.53;36.03;;;6.70;99.90;;;;;;5102051;28;20451;-87
2021/12/28 05:44:47;;;;;;;73.95;36.33;;;6.60;99.90;;;;;;5107411;28;20036;-84
2021/12/28 05:47:12;;;;;;;74.05;39.03;;;6.60;99.90;;;;;;5104561;28;20394;-78
2021/12/28 05:49:39;;;;;;;83.63;38.22;;;6.60;99.90;;;;;;5103125;28;20032;-86
2021/12/28 05:52:05;;;;;;;68.88;34.55;;;6.50;99.90;;;;;;5099521;28;20575;-84
2021/12/28 05:54:31;;;;;;;66.88;33.85;;;6.50;99.90;;;;;;5092963;28;20078;-83
2021/12/28 05:56:57;;;;;;;68.32;35.10;;;6.50;99.90;;;;;;5097503;28;20078;-84
2021/12/28 05:59:23;;;;;;;74.63;38.42;;;6.50;99.90;;;;;;5113538;28;20074;-86
2021/12/28 06:01:48;;;;;;;74.10;38.83;;;6.60;99.90;;;;;;5081635;28;20506;-85
2021/12/28 06:04:14;;;;;;;77.10;37.22;;;6.60;99.90;;;;;;5101068;28;20055;-77
2021/12/28 06:06:40;;;;;;;68.32;34.58;;;6.50;99.90;;;;;;5093103;28;20701;-84
2021/12/28 06:09:06;;;;;;;71.20;36.05;;;6.40;99.90;;;;;;5086286;28;20048;-84
2021/12/28 06:11:32;;;;;;;66.07;31.17;;;6.50;99.90;;;;;;5093222;28;20379;-85
2021/12/28 06:13:57;;;;;;;66.40;32.97;;;6.50;99.90;;;;;;5091936;28;20115;-84
2021/12/28 06:16:23;;;;;;;61.30;31.42;;;6.40;99.90;;;;;;5092082;28;20462;-87
2021/12/28 06:18:48;;;;;;;59.72;32.25;;;6.50;99.90;;;;;;5093148;28;20072;-83
2021/12/28 06:21:14;;;;;;;63.30;31.80;;;6.50;99.90;;;;;;5109975;28;20130;-76
2021/12/28 06:23:40;;;;;;;76.35;30.40;;;6.50;99.90;;;;;;5111329;28;20557;-82
2021/12/28 06:26:06;;;;;;;57.60;31.10;;;6.50;99.90;;;;;;5109431;28;20058;-88
2021/12/28 06:28:31;;;;;;;58.00;29.50;;;6.50;99.90;;;;;;5095699;27;20054;-84
2021/12/28 06:30:58;;;;;;;67.10;30.90;;;6.50;99.90;;;;;;5093972;27;20032;-85
2021/12/28 06:33:24;;;;;;;67.13;30.38;;;6.60;99.90;;;;;;5122701;27;20048;-84
2021/12/28 06:35:50;;;;;;;54.50;27.15;;;6.50;99.90;;;;;;5128149;27;20409;-86
2021/12/28 06:38:20;;;;;;;53.42;28.23;;;6.50;99.90;;;;;;5128698;27;20043;-85
2021/12/28 06:40:46;;;;;;;51.87;27.67;;;6.60;99.90;;;;;;5110050;27;20109;-81
2021/12/28 06:43:12;;;;;;;53.75;27.38;;;6.60;99.90;;;;;;5133053;27;20375;-84
2021/12/28 06:45:38;;;;;;;50.90;27.40;;;6.40;99.90;;;;;;5130890;27;20067;-87
2021/12/28 06:48:04;;;;;;;49.58;25.10;;;6.50;99.90;;;;;;5078352;27;20426;-85
2021/12/28 06:50:30;;;;;;;52.45;25.23;;;6.50;99.90;;;;;;5098658;28;20040;-86
2021/12/28 06:52:56;;;;;;;49.15;26.50;;;6.40;99.90;;;;;;5110534;27;20066;-86
2021/12/28 06:55:21;;;;;;;46.50;23.92;;;6.40;99.90;;;;;;5091647;28;20035;-83
2021/12/28 06:57:47;;;;;;;42.45;23.52;;;6.50;99.90;;;;;;5110822;28;20621;-86
2021/12/28 07:00:18;;;;;;;48.75;26.45;;;6.50;99.90;;;;;;5127542;27;20043;-75
2021/12/28 07:02:44;;;;;;;51.15;25.58;;;6.40;99.90;;;;;;5128268;27;20031;-85
2021/12/28 07:05:11;;;;;;;57.53;25.05;;;6.40;99.90;;;;;;5110791;28;20050;-84
2021/12/28 07:07:38;;;;;;;42.03;23.13;;;6.30;99.90;;;;;;5110280;27;20118;-84
2021/12/28 07:10:06;;;;;;;53.35;25.83;;;6.40;99.90;;;;;;5095530;27;20043;-83
2021/12/28 07:12:31;;;;;;;34.88;20.13;;;6.40;99.90;;;;;;5125623;27;20031;-85
2021/12/28 07:14:57;;;;;;;37.92;20.48;;;6.50;99.90;;;;;;5112014;27;20100;-86
2021/12/28 07:17:23;;;;;;;40.65;20.90;;;6.40;99.90;;;;;;5097320;28;20035;-86
2021/12/28 07:19:48;;;;;;;53.67;22.23;;;6.50;99.90;;;;;;5109601;27;20119;-85
2021/12/28 07:22:14;;;;;;;40.13;20.95;;;6.60;99.90;;;;;;5090610;28;20459;-81
2021/12/28 07:24:40;;;;;;;41.60;23.08;;;6.50;99.90;;;;;;5092481;28;20047;-85
2021/12/28 07:27:05;;;;;;;44.50;20.00;;;6.50;99.90;;;;;;5109436;28;20039;-85
2021/12/28 07:29:33;;;;;;;42.53;19.15;;;6.60;99.90;;;;;;5126759;27;20039;-85
2021/12/28 07:32:00;;;;;;;26.90;18.77;;;6.50;99.90;;;;;;5117648;27;20111;-85
2021/12/28 07:34:26;;;;;;;43.05;19.02;;;6.40;99.90;;;;;;5109397;28;20093;-83
2021/12/28 07:36:52;;;;;;;37.08;19.15;;;6.50;99.90;;;;;;5111940;27;20047;-84
2021/12/28 07:39:17;;;;;;;33.47;18.33;;;6.50;99.90;;;;;;5090832;28;20043;-84
2021/12/28 07:41:43;;;;;;;36.58;18.15;;;6.50;99.90;;;;;;5091942;28;20109;-83
2021/12/28 07:44:09;;;;;;;32.80;16.83;;;6.60;99.90;;;;;;5115693;27;20473;-84
2021/12/28 07:46:34;;;;;;;38.88;17.73;;;6.50;99.90;;;;;;5100392;28;20048;-85
2021/12/28 07:49:00;;;;;;;26.05;16.00;;;6.60;99.90;;;;;;5091071;28;20055;-78
2021/12/28 07:51:26;;;;;;;31.90;14.85;;;6.70;99.90;;;;;;5116978;27;20489;-82
2021/12/28 07:53:51;;;;;;;27.48;15.77;;;6.90;99.90;;;;;;5107375;28;20450;-85
2021/12/28 07:56:17;;;;;;;26.08;15.40;;;6.80;99.90;;;;;;5108682;28;20040;-85
2021/12/28 07:58:43;;;;;;;34.05;15.77;;;6.80;99.90;;;;;;5092382;28;20177;-78
2021/12/28 08:01:08;;;;;;;49.90;17.60;;;6.80;99.90;;;;;;5113710;27;20043;-85
2021/12/28 08:03:34;;;;;;;22.85;15.13;;;6.80;99.90;;;;;;5094187;28;20055;-84
2021/12/28 08:06:00;;;;;;;29.95;16.63;;;6.70;99.90;;;;;;5118610;28;20051;-86
2021/12/28 08:08:26;;;;;;;38.55;15.95;;;6.80;99.90;;;;;;5095103;28;20047;-83
2021/12/28 08:10:52;;;;;;;28.15;13.20;;;6.90;99.90;;;;;;5092424;28;20127;-84
2021/12/28 08:13:18;;;;;;;27.00;12.52;;;6.90;99.90;;;;;;5075461;28;20139;-84
2021/12/28 08:15:44;;;;;;;34.13;12.98;;;6.90;99.90;;;;;;5096188;28;20034;-82
2021/12/28 08:18:09;;;;;;;29.90;13.68;;;6.90;99.90;;;;;;5113012;28;20477;-86
2021/12/28 08:20:37;;;;;;;25.05;11.98;;;7.00;99.90;;;;;;5108535;28;20036;-84
2021/12/28 08:23:03;;;;;;;27.25;13.50;;;6.90;99.90;;;;;;5110895;28;20039;-84
2021/12/28 08:25:29;;;;;;;29.17;12.38;;;7.00;99.90;;;;;;5090152;28;20060;-82
2021/12/28 08:27:56;;;;;;;45.22;14.00;;;7.00;99.90;;;;;;5091530;28;20451;-82
2021/12/28 08:30:22;;;;;;;28.75;12.43;;;7.10;99.90;;;;;;5112548;28;20052;-82
2021/12/28 08:32:48;;;;;;;44.70;13.45;;;7.10;99.90;;;;;;5107196;28;20042;-80
2021/12/28 08:35:15;;;;;;;24.90;14.32;;;7.10;99.90;;;;;;5114851;27;20126;-79
2021/12/28 08:37:42;;;;;;;24.30;11.50;;;7.10;99.90;;;;;;5116197;27;20044;-84
2021/12/28 08:40:10;;;;;;;25.63;12.73;;;7.20;99.90;;;;;;5094815;28;20071;-84
2021/12/28 08:42:36;;;;;;;29.95;11.38;;;7.20;99.90;;;;;;5114542;27;20051;-85
2021/12/28 08:45:02;;;;;;;27.98;12.13;;;7.20;99.90;;;;;;5129901;27;20046;-78
2021/12/28 08:47:28;;;;;;;31.02;13.10;;;7.20;99.90;;;;;;5113756;27;20071;-85
2021/12/28 08:49:55;;;;;;;32.38;11.68;;;7.20;99.90;;;;;;5114893;28;20036;-81
2021/12/28 08:52:22;;;;;;;31.77;11.85;;;7.20;99.90;;;;;;5113672;27;20043;-87
2021/12/28 08:54:48;;;;;;;23.15;12.93;;;7.40;99.90;;;;;;5114890;27;20440;-87
2021/12/28 08:57:13;;;;;;;23.73;11.65;;;7.40;99.90;;;;;;5103180;28;20397;-78
2021/12/28 08:59:39;;;;;;;27.90;11.43;;;7.40;99.90;;;;;;5097215;28;20044;-79
2021/12/28 09:02:07;;;;;;;24.75;12.57;;;7.40;99.90;;;;;;5116751;27;20067;-87
2021/12/28 09:04:33;;;;;;;45.00;14.02;;;7.40;99.90;;;;;;5098383;28;20052;-84
2021/12/28 09:06:59;;;;;;;28.70;11.55;;;7.50;99.90;;;;;;5114448;27;20050;-82
2021/12/28 09:09:24;;;;;;;27.00;11.13;;;7.50;99.90;;;;;;5116584;28;20086;-80
2021/12/28 09:11:50;;;;;;;23.13;11.02;;;7.40;99.90;;;;;;5096657;27;20047;-82
2021/12/28 09:14:16;;;;;;;24.95;12.23;;;7.50;99.90;;;;;;5123822;27;20050;-85
2021/12/28 09:16:41;;;;;;;23.85;11.10;;;7.40;99.90;;;;;;5113439;27;20035;-83
2021/12/28 09:19:07;;;;;;;29.40;13.20;;;7.50;99.90;;;;;;5116022;27;20214;-84
2021/12/28 09:21:33;;;;;;;30.42;14.25;;;7.50;99.90;;;;;;5097855;27;20043;-84
2021/12/28 09:23:59;;;;;;;26.08;11.80;;;7.50;99.90;;;;;;5089605;28;20032;-81
2021/12/28 09:26:24;;;;;;;25.13;12.23;;;7.50;99.90;;;;;;5125092;27;20168;-85
2021/12/28 09:28:50;;;;;;;27.33;14.45;;;7.50;99.90;;;;;;5082476;28;20052;-80
2021/12/28 09:31:16;;;;;;;28.35;12.02;;;7.60;99.90;;;;;;5112863;27;20123;-82
2021/12/28 09:33:41;;;;;;;24.70;12.15;;;7.50;99.90;;;;;;5126438;27;20497;-78
2021/12/28 09:36:09;;;;;;;23.52;11.32;;;7.60;99.90;;;;;;5121383;27;20442;-80
2021/12/28 09:38:35;;;;;;;28.60;13.32;;;7.50;99.90;;;;;;5134419;27;20059;-81
2021/12/28 09:41:01;;;;;;;29.02;13.85;;;7.70;99.90;;;;;;5112949;28;20063;-80
2021/12/28 09:43:27;;;;;;;25.27;11.93;;;7.60;99.90;;;;;;5113670;27;20067;-82
2021/12/28 09:45:53;;;;;;;25.38;11.82;;;7.70;99.90;;;;;;5133812;27;20121;-82
2021/12/28 09:48:18;;;;;;;25.65;14.70;;;7.60;99.90;;;;;;5110928;27;20118;-85
2021/12/28 09:50:44;;;;;;;26.85;14.02;;;7.70;99.90;;;;;;5126978;27;20126;-84
2021/12/28 09:53:13;;;;;;;35.65;13.77;;;7.60;99.90;;;;;;5094455;28;20040;-86
2021/12/28 09:55:40;;;;;;;29.73;14.10;;;7.70;99.90;;;;;;5093843;28;20494;-83
2021/12/28 09:58:06;;;;;;;32.03;16.38;;;7.80;99.90;;;;;;5124086;27;20050;-85
2021/12/28 10:00:32;;;;;;;38.40;15.40;;;7.70;99.90;;;;;;5093144;28;20039;-87
2021/12/28 10:02:57;;;;;;;32.95;15.80;;;7.70;99.90;;;;;;5112345;27;20825;-87
2021/12/28 10:05:25;;;;;;;35.20;15.68;;;7.60;99.90;;;;;;5104880;27;20417;-88
2021/12/28 10:07:56;;;;;;;36.33;17.60;;;7.60;99.90;;;;;;5088381;28;20062;-88
2021/12/28 10:10:27;;;;;;;31.42;16.40;;;7.70;99.90;;;;;;5099576;27;20051;-85
2021/12/28 10:12:57;;;;;;;31.27;16.23;;;7.70;99.90;;;;;;5112235;27;20040;-86
2021/12/28 10:15:26;;;;;;;25.13;15.50;;;7.60;99.90;;;;;;5111500;27;20044;-85
2021/12/28 10:17:57;;;;;;;32.00;15.15;;;7.50;99.90;;;;;;5112018;27;20405;-88
2021/12/28 10:20:30;;;;;;;29.35;16.98;;;7.60;99.90;;;;;;5121574;27;20108;-86
2021/12/28 10:23:02;;;;;;;39.85;19.05;;;7.60;99.90;;;;;;5094343;28;20067;-87
2021/12/28 10:25:36;;;;;;;32.47;19.58;;;7.50;99.90;;;;;;5105897;28;20142;-88
2021/12/28 10:28:09;;;;;;;44.25;18.67;;;7.50;99.90;;;;;;5117617;27;20079;-85
2021/12/28 10:30:35;;;;;;;23.55;15.20;;;7.50;99.90;;;;;;5121959;27;20096;-87
2021/12/28 10:33:12;;;;;;;31.02;16.13;;;7.60;99.90;;;;;;5129023;27;20043;-86
2021/12/28 10:35:41;;;;;;;29.92;17.73;;;7.50;99.90;;;;;;5101393;28;20501;-84
2021/12/28 10:38:11;;;;;;;30.10;16.53;;;7.60;99.90;;;;;;5098144;27;20063;-87
2021/12/28 10:41:03;;;;;;;23.80;15.90;;;7.50;99.90;;;;;;5120441;27;20057;-87
2021/12/28 10:43:32;;;;;;;29.88;14.32;;;7.60;99.90;;;;;;5086980;27;20050;-81
2021/12/28 10:46:00;;;;;;;28.65;14.68;;;7.70;99.90;;;;;;5093838;27;20047;-83
2021/12/28 10:48:39;;;;;;;27.92;13.38;;;7.60;99.90;;;;;;5095037;28;20085;-83
2021/12/28 10:51:12;;;;;;;27.08;14.20;;;7.80;99.90;;;;;;5110464;27;20100;-86
2021/12/28 10:56:26;;;;;;;22.92;14.65;;;7.80;99.90;;;;;;5109413;27;20043;-87
2021/12/28 10:58:53;;;;;;;23.02;12.95;;;7.70;99.90;;;;;;5118559;27;20565;-87
2021/12/28 11:01:33;;;;;;;22.55;14.40;;;7.90;99.90;;;;;;5120923;27;20031;-88
2021/12/28 11:04:04;;;;;;;25.13;13.57;;;7.80;99.90;;;;;;5117111;27;20062;-84
2021/12/28 11:06:35;;;;;;;23.73;13.65;;;7.80;99.90;;;;;;5111824;27;20044;-80
2021/12/28 11:09:07;;;;;;;18.85;14.23;;;7.90;99.90;;;;;;5094022;28;20077;-76
2021/12/28 11:11:35;;;;;;;22.25;13.82;;;7.90;99.90;;;;;;5107038;27;20401;-79
2021/12/28 11:14:05;;;;;;;19.58;13.27;;;7.90;99.90;;;;;;5100000;27;20039;-82
2021/12/28 11:16:33;;;;;;;22.48;13.65;;;8.00;99.90;;;;;;5118942;27;20039;-84
2021/12/28 11:19:01;;;;;;;32.03;13.98;;;7.90;99.90;;;;;;5092763;28;20047;-85
2021/12/28 11:21:42;;;;;;;18.30;11.40;;;8.00;99.90;;;;;;5110898;27;20044;-86
2021/12/28 11:24:13;;;;;;;17.70;12.02;;;8.00;99.90;;;;;;5093182;28;20493;-87
2021/12/28 11:26:42;;;;;;;17.73;11.95;;;8.00;99.90;;;;;;5093984;28;20059;-86
2021/12/28 11:29:15;;;;;;;19.95;13.40;;;7.90;99.90;;;;;;5091748;27;20226;-80
2021/12/28 11:31:51;;;;;;;20.60;11.88;;;8.00;99.90;;;;;;5115510;27;20050;-84
2021/12/28 11:34:23;;;;;;;16.88;11.65;;;7.90;99.90;;;;;;5106789;27;20092;-82
2021/12/28 11:36:54;;;;;;;22.65;11.50;;;8.00;99.90;;;;;;5121179;27;20139;-83
2021/12/28 11:39:25;;;;;;;12.93;10.27;;;7.90;99.90;;;;;;5100421;28;20047;-83
2021/12/28 11:41:51;;;;;;;14.63;10.30;;;8.00;99.90;;;;;;5092305;28;20066;-82
2021/12/28 11:44:18;;;;;;;15.27;9.63;;;8.00;99.90;;;;;;5123607;27;20544;-82
2021/12/28 11:46:46;;;;;;;15.80;11.02;;;8.00;99.90;;;;;;5090961;28;20122;-82
2021/12/28 11:49:14;;;;;;;12.27;9.40;;;8.00;99.90;;;;;;5102931;27;20092;-80
2021/12/28 11:51:42;;;;;;;15.00;9.57;;;8.00;99.90;;;;;;5110246;28;20047;-83
2021/12/28 11:54:10;;;;;;;10.98;8.00;;;8.00;99.90;;;;;;5117057;27;20048;-83
2021/12/28 11:56:42;;;;;;;9.07;7.10;;;8.10;99.90;;;;;;5091062;28;20040;-83
2021/12/28 11:59:16;;;;;;;15.10;8.35;;;8.10;99.90;;;;;;5118968;27;20034;-83
2021/12/28 12:01:44;;;;;;;10.57;7.65;;;8.10;99.90;;;;;;5125625;27;20039;-82
2021/12/28 12:04:33;;;;;;;11.45;7.25;;;8.10;99.90;;;;;;5118339;27;20042;-80
2021/12/28 12:07:01;;;;;;;14.03;8.63;;;8.10;99.90;;;;;;5101304;28;20082;-79
2021/12/28 12:09:28;;;;;;;11.02;7.95;;;8.10;99.90;;;;;;5123446;28;20035;-81
2021/12/28 12:12:17;;;;;;;10.30;7.03;;;8.20;99.90;;;;;;5121009;28;20031;-76
2021/12/28 12:15:08;;;;;;;15.32;7.47;;;8.20;99.90;;;;;;5118913;28;20081;-76
2021/12/28 12:17:38;;;;;;;9.20;7.90;;;8.20;99.90;;;;;;5104827;28;20104;-78
2021/12/28 12:20:10;;;;;;;9.63;8.10;;;8.20;99.90;;;;;;5091306;28;20119;-79
2021/12/28 12:22:45;;;;;;;12.02;6.88;;;8.30;99.90;;;;;;5113448;28;20482;-79
2021/12/28 12:25:15;;;;;;;8.15;7.10;;;8.30;99.90;;;;;;5118696;28;20412;-80
2021/12/28 12:27:46;;;;;;;10.73;7.28;;;8.30;99.90;;;;;;5120424;28;20051;-82
2021/12/28 12:30:17;;;;;;;11.15;7.82;;;8.30;99.90;;;;;;5099527;28;20051;-80
2021/12/28 12:32:55;;;;;;;9.73;7.97;;;8.30;99.90;;;;;;5119334;28;20088;-81
2021/12/28 12:35:42;;;;;;;10.32;8.27;;;8.30;99.90;;;;;;5096707;28;20860;-83
2021/12/28 12:38:16;;;;;;;15.15;9.18;;;8.40;99.90;;;;;;5081981;28;20044;-80
2021/12/28 12:41:08;;;;;;;12.38;8.93;;;8.40;99.90;;;;;;5121922;28;20144;-74
2021/12/28 12:43:40;;;;;;;11.48;9.60;;;8.40;99.90;;;;;;5114638;28;20066;-81